sensor_id;sensor_type;location;lat;lon;timestamp;temperature;humidity
16517;DHT22;8371;52.272;9.746;2023-06-22T00:01:54;20.10;59.40
16517;DHT22;8371;52.272;9.746;2023-06-22T00:04:19;20.00;59.60
16517;DHT22;8371;52.272;9.746;2023-06-22T00:06:45;19.90;59.70
16517;DHT22;8371;52.272;9.746;2023-06-22T00:09:11;19.80;59.80
16517;DHT22;8371;52.272;9.746;2023-06-22T00:11:37;19.70;60.10
16517;DHT22;8371;52.272;9.746;2023-06-22T00:14:03;19.70;60.40
16517;DHT22;8371;52.272;9.746;2023-06-22T00:16:30;19.60;60.70
16517;DHT22;8371;52.272;9.746;2023-06-22T00:18:55;19.50;61.00
16517;DHT22;8371;52.272;9.746;2023-06-22T00:21:23;19.50;61.60
16517;DHT22;8371;52.272;9.746;2023-06-22T00:23:49;19.50;62.00
16517;DHT22;8371;52.272;9.746;2023-06-22T00:26:14;19.40;62.40
16517;DHT22;8371;52.272;9.746;2023-06-22T00:28:40;19.40;62.50
16517;DHT22;8371;52.272;9.746;2023-06-22T00:31:06;19.30;62.40
16517;DHT22;8371;52.272;9.746;2023-06-22T00:33:31;19.40;62.30
16517;DHT22;8371;52.272;9.746;2023-06-22T00:35:57;19.40;62.30
16517;DHT22;8371;52.272;9.746;2023-06-22T00:38:23;19.30;62.30
16517;DHT22;8371;52.272;9.746;2023-06-22T00:40:48;19.20;62.10
16517;DHT22;8371;52.272;9.746;2023-06-22T00:43:14;19.30;62.20
16517;DHT22;8371;52.272;9.746;2023-06-22T00:45:40;19.20;61.90
16517;DHT22;8371;52.272;9.746;2023-06-22T00:48:06;19.20;62.00
16517;DHT22;8371;52.272;9.746;2023-06-22T00:50:33;19.10;62.10
16517;DHT22;8371;52.272;9.746;2023-06-22T00:53:06;19.00;62.20
16517;DHT22;8371;52.272;9.746;2023-06-22T00:55:36;19.00;62.50
16517;DHT22;8371;52.272;9.746;2023-06-22T00:58:07;18.90;62.40
16517;DHT22;8371;52.272;9.746;2023-06-22T01:00:35;18.80;62.30
16517;DHT22;8371;52.272;9.746;2023-06-22T01:03:01;18.80;63.00
16517;DHT22;8371;52.272;9.746;2023-06-22T01:05:28;18.80;63.40
16517;DHT22;8371;52.272;9.746;2023-06-22T01:11:01;18.70;63.70
16517;DHT22;8371;52.272;9.746;2023-06-22T01:16:26;18.70;63.80
16517;DHT22;8371;52.272;9.746;2023-06-22T01:18:55;18.60;63.60
16517;DHT22;8371;52.272;9.746;2023-06-22T01:21:23;18.50;63.40
16517;DHT22;8371;52.272;9.746;2023-06-22T01:24:14;18.50;63.40
16517;DHT22;8371;52.272;9.746;2023-06-22T01:26:57;18.50;63.40
16517;DHT22;8371;52.272;9.746;2023-06-22T01:29:22;18.40;63.40
16517;DHT22;8371;52.272;9.746;2023-06-22T01:31:50;18.40;63.30
16517;DHT22;8371;52.272;9.746;2023-06-22T01:34:17;18.30;63.50
16517;DHT22;8371;52.272;9.746;2023-06-22T01:36:43;18.20;63.80
16517;DHT22;8371;52.272;9.746;2023-06-22T01:39:09;18.20;64.20
16517;DHT22;8371;52.272;9.746;2023-06-22T01:41:37;18.20;64.80
16517;DHT22;8371;52.272;9.746;2023-06-22T01:44:05;18.20;65.20
16517;DHT22;8371;52.272;9.746;2023-06-22T01:46:32;18.20;65.50
16517;DHT22;8371;52.272;9.746;2023-06-22T01:48:58;18.20;65.60
16517;DHT22;8371;52.272;9.746;2023-06-22T01:51:24;18.20;65.60
16517;DHT22;8371;52.272;9.746;2023-06-22T01:53:50;18.20;65.50
16517;DHT22;8371;52.272;9.746;2023-06-22T01:56:17;18.20;65.80
16517;DHT22;8371;52.272;9.746;2023-06-22T01:58:52;18.20;66.00
16517;DHT22;8371;52.272;9.746;2023-06-22T02:01:20;18.20;66.30
16517;DHT22;8371;52.272;9.746;2023-06-22T02:03:52;18.20;66.60
16517;DHT22;8371;52.272;9.746;2023-06-22T02:06:23;18.30;66.90
16517;DHT22;8371;52.272;9.746;2023-06-22T02:08:53;18.30;67.00
16517;DHT22;8371;52.272;9.746;2023-06-22T02:11:20;18.30;67.00
16517;DHT22;8371;52.272;9.746;2023-06-22T02:13:47;18.40;67.10
16517;DHT22;8371;52.272;9.746;2023-06-22T02:16:14;18.40;67.00
16517;DHT22;8371;52.272;9.746;2023-06-22T02:18:48;18.40;66.90
16517;DHT22;8371;52.272;9.746;2023-06-22T02:21:19;18.40;66.90
16517;DHT22;8371;52.272;9.746;2023-06-22T02:23:45;18.40;66.90
16517;DHT22;8371;52.272;9.746;2023-06-22T02:26:11;18.50;67.00
16517;DHT22;8371;52.272;9.746;2023-06-22T02:28:37;18.50;66.90
16517;DHT22;8371;52.272;9.746;2023-06-22T02:31:03;18.50;66.70
16517;DHT22;8371;52.272;9.746;2023-06-22T02:33:29;18.40;66.60
16517;DHT22;8371;52.272;9.746;2023-06-22T02:35:54;18.40;66.50
16517;DHT22;8371;52.272;9.746;2023-06-22T02:38:20;18.40;66.60
16517;DHT22;8371;52.272;9.746;2023-06-22T02:40:46;18.40;66.60
16517;DHT22;8371;52.272;9.746;2023-06-22T02:43:13;18.30;66.80
16517;DHT22;8371;52.272;9.746;2023-06-22T02:45:38;18.30;66.80
16517;DHT22;8371;52.272;9.746;2023-06-22T02:48:04;18.30;66.80
16517;DHT22;8371;52.272;9.746;2023-06-22T02:50:30;18.30;66.90
16517;DHT22;8371;52.272;9.746;2023-06-22T02:52:56;18.30;66.90
16517;DHT22;8371;52.272;9.746;2023-06-22T02:55:21;18.30;67.70
16517;DHT22;8371;52.272;9.746;2023-06-22T02:57:48;18.20;66.80
16517;DHT22;8371;52.272;9.746;2023-06-22T03:00:16;18.20;66.80
16517;DHT22;8371;52.272;9.746;2023-06-22T03:02:46;18.10;67.00
16517;DHT22;8371;52.272;9.746;2023-06-22T03:05:13;18.10;67.20
16517;DHT22;8371;52.272;9.746;2023-06-22T03:07:42;18.10;67.20
16517;DHT22;8371;52.272;9.746;2023-06-22T03:10:09;18.10;67.20
16517;DHT22;8371;52.272;9.746;2023-06-22T03:12:36;18.00;67.30
16517;DHT22;8371;52.272;9.746;2023-06-22T03:15:05;18.00;67.50
16517;DHT22;8371;52.272;9.746;2023-06-22T03:17:31;18.00;67.50
16517;DHT22;8371;52.272;9.746;2023-06-22T03:19:56;18.00;67.60
16517;DHT22;8371;52.272;9.746;2023-06-22T03:22:22;18.00;67.70
16517;DHT22;8371;52.272;9.746;2023-06-22T03:24:48;18.00;67.90
16517;DHT22;8371;52.272;9.746;2023-06-22T03:27:13;18.00;68.00
16517;DHT22;8371;52.272;9.746;2023-06-22T03:29:39;18.00;68.10
16517;DHT22;8371;52.272;9.746;2023-06-22T03:32:05;18.00;68.40
16517;DHT22;8371;52.272;9.746;2023-06-22T03:34:32;18.10;68.50
16517;DHT22;8371;52.272;9.746;2023-06-22T03:37:04;18.10;68.60
16517;DHT22;8371;52.272;9.746;2023-06-22T03:39:30;18.10;68.70
16517;DHT22;8371;52.272;9.746;2023-06-22T03:41:55;18.10;68.80
16517;DHT22;8371;52.272;9.746;2023-06-22T03:44:21;18.20;69.10
16517;DHT22;8371;52.272;9.746;2023-06-22T03:46:46;18.30;69.50
16517;DHT22;8371;52.272;9.746;2023-06-22T03:49:12;18.30;69.80
16517;DHT22;8371;52.272;9.746;2023-06-22T03:51:38;18.40;70.50
16517;DHT22;8371;52.272;9.746;2023-06-22T03:54:04;18.60;70.80
16517;DHT22;8371;52.272;9.746;2023-06-22T03:56:30;18.70;71.30
16517;DHT22;8371;52.272;9.746;2023-06-22T03:58:55;18.90;71.60
16517;DHT22;8371;52.272;9.746;2023-06-22T04:01:21;19.00;71.70
16517;DHT22;8371;52.272;9.746;2023-06-22T04:03:47;19.30;71.70
16517;DHT22;8371;52.272;9.746;2023-06-22T04:06:15;19.50;71.60
16517;DHT22;8371;52.272;9.746;2023-06-22T04:08:40;19.70;71.40
16517;DHT22;8371;52.272;9.746;2023-06-22T04:11:06;19.80;71.10
16517;DHT22;8371;52.272;9.746;2023-06-22T04:13:32;20.00;71.00
16517;DHT22;8371;52.272;9.746;2023-06-22T04:15:57;20.10;70.70
16517;DHT22;8371;52.272;9.746;2023-06-22T04:18:23;20.30;70.60
16517;DHT22;8371;52.272;9.746;2023-06-22T04:20:49;20.40;70.40
16517;DHT22;8371;52.272;9.746;2023-06-22T04:23:15;20.50;70.10
16517;DHT22;8371;52.272;9.746;2023-06-22T04:25:40;20.60;69.90
16517;DHT22;8371;52.272;9.746;2023-06-22T04:28:06;20.60;69.70
16517;DHT22;8371;52.272;9.746;2023-06-22T04:30:34;20.70;69.50
16517;DHT22;8371;52.272;9.746;2023-06-22T04:32:59;20.80;69.40
16517;DHT22;8371;52.272;9.746;2023-06-22T04:35:25;20.80;69.40
16517;DHT22;8371;52.272;9.746;2023-06-22T04:37:53;20.90;69.50
16517;DHT22;8371;52.272;9.746;2023-06-22T04:40:22;20.80;69.50
16517;DHT22;8371;52.272;9.746;2023-06-22T04:42:48;21.00;69.90
16517;DHT22;8371;52.272;9.746;2023-06-22T04:45:20;21.10;69.60
16517;DHT22;8371;52.272;9.746;2023-06-22T04:47:46;21.20;70.40
16517;DHT22;8371;52.272;9.746;2023-06-22T04:50:12;21.30;70.40
16517;DHT22;8371;52.272;9.746;2023-06-22T04:52:38;21.40;70.40
16517;DHT22;8371;52.272;9.746;2023-06-22T04:55:04;21.60;70.40
16517;DHT22;8371;52.272;9.746;2023-06-22T04:57:30;21.70;70.10
16517;DHT22;8371;52.272;9.746;2023-06-22T05:00:02;21.80;70.00
16517;DHT22;8371;52.272;9.746;2023-06-22T05:02:39;21.90;69.90
16517;DHT22;8371;52.272;9.746;2023-06-22T05:05:05;22.00;69.80
16517;DHT22;8371;52.272;9.746;2023-06-22T05:07:33;22.10;69.80
16517;DHT22;8371;52.272;9.746;2023-06-22T05:10:00;22.20;69.80
16517;DHT22;8371;52.272;9.746;2023-06-22T05:12:27;22.20;69.80
16517;DHT22;8371;52.272;9.746;2023-06-22T05:14:53;22.30;69.70
16517;DHT22;8371;52.272;9.746;2023-06-22T05:17:19;22.40;69.60
16517;DHT22;8371;52.272;9.746;2023-06-22T05:19:45;22.50;69.50
16517;DHT22;8371;52.272;9.746;2023-06-22T05:22:12;22.50;69.40
16517;DHT22;8371;52.272;9.746;2023-06-22T05:24:38;22.60;69.40
16517;DHT22;8371;52.272;9.746;2023-06-22T05:27:04;22.70;69.70
16517;DHT22;8371;52.272;9.746;2023-06-22T05:29:30;22.70;69.70
16517;DHT22;8371;52.272;9.746;2023-06-22T05:31:56;22.90;69.80
16517;DHT22;8371;52.272;9.746;2023-06-22T05:34:21;23.00;69.80
16517;DHT22;8371;52.272;9.746;2023-06-22T05:36:47;23.10;69.60
16517;DHT22;8371;52.272;9.746;2023-06-22T05:39:14;23.20;69.40
16517;DHT22;8371;52.272;9.746;2023-06-22T05:41:40;23.30;69.10
16517;DHT22;8371;52.272;9.746;2023-06-22T05:44:06;23.60;68.90
16517;DHT22;8371;52.272;9.746;2023-06-22T05:46:32;23.60;68.60
16517;DHT22;8371;52.272;9.746;2023-06-22T05:48:58;23.70;68.30
16517;DHT22;8371;52.272;9.746;2023-06-22T05:51:23;23.80;68.20
16517;DHT22;8371;52.272;9.746;2023-06-22T05:53:49;24.00;68.20
16517;DHT22;8371;52.272;9.746;2023-06-22T05:56:15;24.10;68.00
16517;DHT22;8371;52.272;9.746;2023-06-22T05:58:41;24.20;67.90
16517;DHT22;8371;52.272;9.746;2023-06-22T06:01:07;24.30;67.80
16517;DHT22;8371;52.272;9.746;2023-06-22T06:03:32;24.40;67.60
16517;DHT22;8371;52.272;9.746;2023-06-22T06:05:58;24.50;67.60
16517;DHT22;8371;52.272;9.746;2023-06-22T06:08:34;24.60;67.40
16517;DHT22;8371;52.272;9.746;2023-06-22T06:11:00;24.70;67.30
16517;DHT22;8371;52.272;9.746;2023-06-22T06:13:25;24.80;67.30
16517;DHT22;8371;52.272;9.746;2023-06-22T06:15:51;25.00;67.30
16517;DHT22;8371;52.272;9.746;2023-06-22T06:18:19;25.10;67.30
16517;DHT22;8371;52.272;9.746;2023-06-22T06:20:44;25.20;67.10
16517;DHT22;8371;52.272;9.746;2023-06-22T06:23:10;25.40;67.00
16517;DHT22;8371;52.272;9.746;2023-06-22T06:25:36;25.50;66.70
16517;DHT22;8371;52.272;9.746;2023-06-22T06:28:01;25.70;66.30
16517;DHT22;8371;52.272;9.746;2023-06-22T06:30:27;25.80;65.90
16517;DHT22;8371;52.272;9.746;2023-06-22T06:32:53;25.90;65.80
16517;DHT22;8371;52.272;9.746;2023-06-22T06:35:18;26.00;65.40
16517;DHT22;8371;52.272;9.746;2023-06-22T06:37:46;26.10;65.30
16517;DHT22;8371;52.272;9.746;2023-06-22T06:40:13;26.10;65.00
16517;DHT22;8371;52.272;9.746;2023-06-22T06:42:46;26.20;64.90
16517;DHT22;8371;52.272;9.746;2023-06-22T06:45:15;26.20;64.80
16517;DHT22;8371;52.272;9.746;2023-06-22T06:47:40;26.30;64.80
16517;DHT22;8371;52.272;9.746;2023-06-22T06:50:06;26.40;64.40
16517;DHT22;8371;52.272;9.746;2023-06-22T06:52:32;26.40;64.20
16517;DHT22;8371;52.272;9.746;2023-06-22T06:54:59;26.50;64.20
16517;DHT22;8371;52.272;9.746;2023-06-22T06:57:24;26.60;64.10
16517;DHT22;8371;52.272;9.746;2023-06-22T06:59:52;26.70;63.70
16517;DHT22;8371;52.272;9.746;2023-06-22T07:02:18;26.70;63.50
16517;DHT22;8371;52.272;9.746;2023-06-22T07:04:44;26.80;63.40
16517;DHT22;8371;52.272;9.746;2023-06-22T07:07:10;26.90;63.30
16517;DHT22;8371;52.272;9.746;2023-06-22T07:09:35;27.00;63.30
16517;DHT22;8371;52.272;9.746;2023-06-22T07:12:01;27.20;63.30
16517;DHT22;8371;52.272;9.746;2023-06-22T07:14:27;27.20;63.00
16517;DHT22;8371;52.272;9.746;2023-06-22T07:16:52;27.30;62.70
16517;DHT22;8371;52.272;9.746;2023-06-22T07:19:27;27.40;62.50
16517;DHT22;8371;52.272;9.746;2023-06-22T07:21:53;27.60;62.20
16517;DHT22;8371;52.272;9.746;2023-06-22T07:24:20;27.70;62.00
16517;DHT22;8371;52.272;9.746;2023-06-22T07:26:47;27.70;61.60
16517;DHT22;8371;52.272;9.746;2023-06-22T07:29:14;27.80;61.20
16517;DHT22;8371;52.272;9.746;2023-06-22T07:31:39;27.80;61.10
16517;DHT22;8371;52.272;9.746;2023-06-22T07:34:06;27.90;61.00
16517;DHT22;8371;52.272;9.746;2023-06-22T07:36:32;28.00;60.80
16517;DHT22;8371;52.272;9.746;2023-06-22T07:38:58;28.00;60.20
16517;DHT22;8371;52.272;9.746;2023-06-22T07:41:23;28.10;60.50
16517;DHT22;8371;52.272;9.746;2023-06-22T07:43:49;28.20;60.40
16517;DHT22;8371;52.272;9.746;2023-06-22T07:46:15;28.20;60.00
16517;DHT22;8371;52.272;9.746;2023-06-22T07:48:41;28.20;60.00
16517;DHT22;8371;52.272;9.746;2023-06-22T07:51:08;28.30;59.70
16517;DHT22;8371;52.272;9.746;2023-06-22T07:53:34;28.30;59.60
16517;DHT22;8371;52.272;9.746;2023-06-22T07:56:01;28.30;59.40
16517;DHT22;8371;52.272;9.746;2023-06-22T07:58:29;28.40;59.40
16517;DHT22;8371;52.272;9.746;2023-06-22T08:00:54;28.50;59.10
16517;DHT22;8371;52.272;9.746;2023-06-22T08:03:20;28.50;58.90
16517;DHT22;8371;52.272;9.746;2023-06-22T08:05:46;28.60;58.90
16517;DHT22;8371;52.272;9.746;2023-06-22T08:08:11;28.60;59.00
16517;DHT22;8371;52.272;9.746;2023-06-22T08:10:37;28.70;59.00
16517;DHT22;8371;52.272;9.746;2023-06-22T08:13:03;28.80;58.80
16517;DHT22;8371;52.272;9.746;2023-06-22T08:15:28;28.90;58.70
16517;DHT22;8371;52.272;9.746;2023-06-22T08:17:54;29.00;58.70
16517;DHT22;8371;52.272;9.746;2023-06-22T08:20:20;29.10;58.50
16517;DHT22;8371;52.272;9.746;2023-06-22T08:22:46;29.20;58.30
16517;DHT22;8371;52.272;9.746;2023-06-22T08:25:12;29.30;58.00
16517;DHT22;8371;52.272;9.746;2023-06-22T08:27:38;29.20;57.60
16517;DHT22;8371;52.272;9.746;2023-06-22T08:30:05;29.50;57.60
16517;DHT22;8371;52.272;9.746;2023-06-22T08:32:30;29.60;57.60
16517;DHT22;8371;52.272;9.746;2023-06-22T08:34:58;29.70;57.50
16517;DHT22;8371;52.272;9.746;2023-06-22T08:37:24;29.80;57.30
16517;DHT22;8371;52.272;9.746;2023-06-22T08:39:52;29.90;57.00
16517;DHT22;8371;52.272;9.746;2023-06-22T08:42:17;29.90;56.60
16517;DHT22;8371;52.272;9.746;2023-06-22T08:44:43;30.00;56.10
16517;DHT22;8371;52.272;9.746;2023-06-22T08:47:09;30.00;55.80
16517;DHT22;8371;52.272;9.746;2023-06-22T08:49:34;29.90;55.80
16517;DHT22;8371;52.272;9.746;2023-06-22T08:52:00;29.90;55.80
16517;DHT22;8371;52.272;9.746;2023-06-22T08:54:26;29.90;55.80
16517;DHT22;8371;52.272;9.746;2023-06-22T08:56:51;29.80;55.70
16517;DHT22;8371;52.272;9.746;2023-06-22T08:59:17;29.80;55.60
16517;DHT22;8371;52.272;9.746;2023-06-22T09:01:43;29.70;55.50
16517;DHT22;8371;52.272;9.746;2023-06-22T09:04:10;29.70;55.40
16517;DHT22;8371;52.272;9.746;2023-06-22T09:06:37;29.10;55.50
16517;DHT22;8371;52.272;9.746;2023-06-22T09:09:04;29.70;55.80
16517;DHT22;8371;52.272;9.746;2023-06-22T09:11:31;29.70;55.80
16517;DHT22;8371;52.272;9.746;2023-06-22T09:13:57;29.70;55.60
16517;DHT22;8371;52.272;9.746;2023-06-22T09:16:23;29.80;55.70
16517;DHT22;8371;52.272;9.746;2023-06-22T09:18:48;29.90;55.70
16517;DHT22;8371;52.272;9.746;2023-06-22T09:21:14;29.90;55.70
16517;DHT22;8371;52.272;9.746;2023-06-22T09:23:40;30.10;55.80
16517;DHT22;8371;52.272;9.746;2023-06-22T09:26:05;30.10;55.50
16517;DHT22;8371;52.272;9.746;2023-06-22T09:28:31;30.20;55.60
16517;DHT22;8371;52.272;9.746;2023-06-22T09:30:57;30.30;55.00
16517;DHT22;8371;52.272;9.746;2023-06-22T09:33:25;30.40;55.30
16517;DHT22;8371;52.272;9.746;2023-06-22T09:35:50;30.40;55.10
16517;DHT22;8371;52.272;9.746;2023-06-22T09:38:16;30.50;54.80
16517;DHT22;8371;52.272;9.746;2023-06-22T09:40:42;30.60;54.70
16517;DHT22;8371;52.272;9.746;2023-06-22T09:43:08;30.60;54.40
16517;DHT22;8371;52.272;9.746;2023-06-22T09:45:34;30.60;54.50
16517;DHT22;8371;52.272;9.746;2023-06-22T09:47:59;30.60;54.50
16517;DHT22;8371;52.272;9.746;2023-06-22T09:50:25;30.70;54.50
16517;DHT22;8371;52.272;9.746;2023-06-22T09:52:51;30.70;54.30
16517;DHT22;8371;52.272;9.746;2023-06-22T09:55:18;30.70;54.40
16517;DHT22;8371;52.272;9.746;2023-06-22T09:57:44;30.80;54.10
16517;DHT22;8371;52.272;9.746;2023-06-22T10:00:11;30.90;54.00
16517;DHT22;8371;52.272;9.746;2023-06-22T10:02:39;30.90;54.30
16517;DHT22;8371;52.272;9.746;2023-06-22T10:05:05;31.00;54.00
16517;DHT22;8371;52.272;9.746;2023-06-22T10:07:33;31.10;53.70
16517;DHT22;8371;52.272;9.746;2023-06-22T10:09:59;31.10;53.40
16517;DHT22;8371;52.272;9.746;2023-06-22T10:12:26;31.10;53.30
16517;DHT22;8371;52.272;9.746;2023-06-22T10:14:52;31.10;53.20
16517;DHT22;8371;52.272;9.746;2023-06-22T10:17:18;31.10;53.20
16517;DHT22;8371;52.272;9.746;2023-06-22T10:19:44;31.10;53.20
16517;DHT22;8371;52.272;9.746;2023-06-22T10:22:09;31.20;53.20
16517;DHT22;8371;52.272;9.746;2023-06-22T10:24:35;31.20;53.70
16517;DHT22;8371;52.272;9.746;2023-06-22T10:27:01;31.20;53.00
16517;DHT22;8371;52.272;9.746;2023-06-22T10:29:26;31.20;52.90
16517;DHT22;8371;52.272;9.746;2023-06-22T10:31:52;31.20;52.90
16517;DHT22;8371;52.272;9.746;2023-06-22T10:34:18;31.20;53.30
16517;DHT22;8371;52.272;9.746;2023-06-22T10:36:43;31.10;52.60
16517;DHT22;8371;52.272;9.746;2023-06-22T10:39:11;31.10;52.70
16517;DHT22;8371;52.272;9.746;2023-06-22T10:41:37;31.00;52.80
16517;DHT22;8371;52.272;9.746;2023-06-22T10:44:02;31.00;53.00
16517;DHT22;8371;52.272;9.746;2023-06-22T10:46:28;31.00;53.00
16517;DHT22;8371;52.272;9.746;2023-06-22T10:48:54;31.00;53.10
16517;DHT22;8371;52.272;9.746;2023-06-22T10:51:21;31.00;53.10
16517;DHT22;8371;52.272;9.746;2023-06-22T10:53:46;31.10;53.20
16517;DHT22;8371;52.272;9.746;2023-06-22T10:56:12;31.10;53.20
16517;DHT22;8371;52.272;9.746;2023-06-22T10:58:38;31.20;52.90
16517;DHT22;8371;52.272;9.746;2023-06-22T11:01:03;31.30;53.20
16517;DHT22;8371;52.272;9.746;2023-06-22T11:03:29;31.30;53.10
16517;DHT22;8371;52.272;9.746;2023-06-22T11:05:55;31.40;53.10
16517;DHT22;8371;52.272;9.746;2023-06-22T11:08:20;31.50;53.00
16517;DHT22;8371;52.272;9.746;2023-06-22T11:10:46;31.50;53.00
16517;DHT22;8371;52.272;9.746;2023-06-22T11:13:12;31.60;52.60
16517;DHT22;8371;52.272;9.746;2023-06-22T11:15:38;31.60;52.60
16517;DHT22;8371;52.272;9.746;2023-06-22T11:18:04;31.60;52.60
16517;DHT22;8371;52.272;9.746;2023-06-22T11:20:31;31.70;52.50
16517;DHT22;8371;52.272;9.746;2023-06-22T11:22:58;31.70;52.40
16517;DHT22;8371;52.272;9.746;2023-06-22T11:25:25;31.70;52.50
16517;DHT22;8371;52.272;9.746;2023-06-22T11:27:51;31.80;52.50
16517;DHT22;8371;52.272;9.746;2023-06-22T11:30:18;31.90;52.30
16517;DHT22;8371;52.272;9.746;2023-06-22T11:32:45;32.00;52.60
16517;DHT22;8371;52.272;9.746;2023-06-22T11:35:10;32.10;52.70
16517;DHT22;8371;52.272;9.746;2023-06-22T11:37:36;32.30;52.70
16517;DHT22;8371;52.272;9.746;2023-06-22T11:40:02;32.40;52.60
16517;DHT22;8371;52.272;9.746;2023-06-22T11:42:30;32.70;52.70
16517;DHT22;8371;52.272;9.746;2023-06-22T11:44:55;32.90;52.10
16517;DHT22;8371;52.272;9.746;2023-06-22T11:47:21;33.10;51.70
16517;DHT22;8371;52.272;9.746;2023-06-22T11:49:47;33.40;51.30
16517;DHT22;8371;52.272;9.746;2023-06-22T11:52:12;33.50;50.90
16517;DHT22;8371;52.272;9.746;2023-06-22T11:54:38;33.70;51.00
16517;DHT22;8371;52.272;9.746;2023-06-22T11:57:04;33.80;50.20
16517;DHT22;8371;52.272;9.746;2023-06-22T11:59:30;34.10;49.90
16517;DHT22;8371;52.272;9.746;2023-06-22T12:01:57;34.10;49.70
16517;DHT22;8371;52.272;9.746;2023-06-22T12:04:23;34.20;49.50
16517;DHT22;8371;52.272;9.746;2023-06-22T12:06:49;34.20;49.40
16517;DHT22;8371;52.272;9.746;2023-06-22T12:09:14;34.40;49.60
16517;DHT22;8371;52.272;9.746;2023-06-22T12:11:40;34.60;49.50
16517;DHT22;8371;52.272;9.746;2023-06-22T12:14:06;34.70;49.40
16517;DHT22;8371;52.272;9.746;2023-06-22T12:16:31;34.80;49.10
16517;DHT22;8371;52.272;9.746;2023-06-22T12:18:57;34.90;48.60
16517;DHT22;8371;52.272;9.746;2023-06-22T12:21:23;35.00;48.30
16517;DHT22;8371;52.272;9.746;2023-06-22T12:23:48;35.10;48.10
16517;DHT22;8371;52.272;9.746;2023-06-22T12:26:14;35.20;47.20
16517;DHT22;8371;52.272;9.746;2023-06-22T12:28:40;35.10;47.00
16517;DHT22;8371;52.272;9.746;2023-06-22T12:31:05;35.10;46.80
16517;DHT22;8371;52.272;9.746;2023-06-22T12:33:31;35.00;46.50
16517;DHT22;8371;52.272;9.746;2023-06-22T12:35:57;34.90;46.50
16517;DHT22;8371;52.272;9.746;2023-06-22T12:38:22;34.70;46.40
16517;DHT22;8371;52.272;9.746;2023-06-22T12:40:50;34.70;46.70
16517;DHT22;8371;52.272;9.746;2023-06-22T12:43:16;34.60;46.90
16517;DHT22;8371;52.272;9.746;2023-06-22T12:45:41;34.50;46.80
16517;DHT22;8371;52.272;9.746;2023-06-22T12:48:07;34.50;46.90
16517;DHT22;8371;52.272;9.746;2023-06-22T12:50:34;34.40;46.90
16517;DHT22;8371;52.272;9.746;2023-06-22T12:53:00;34.40;46.90
16517;DHT22;8371;52.272;9.746;2023-06-22T12:55:27;34.30;46.60
16517;DHT22;8371;52.272;9.746;2023-06-22T12:57:53;34.20;46.50
16517;DHT22;8371;52.272;9.746;2023-06-22T13:00:19;34.00;46.70
16517;DHT22;8371;52.272;9.746;2023-06-22T13:02:45;33.90;46.90
16517;DHT22;8371;52.272;9.746;2023-06-22T13:05:11;33.80;47.70
16517;DHT22;8371;52.272;9.746;2023-06-22T13:07:36;33.60;47.30
16517;DHT22;8371;52.272;9.746;2023-06-22T13:10:03;33.40;47.50
16517;DHT22;8371;52.272;9.746;2023-06-22T13:12:28;33.20;47.80
16517;DHT22;8371;52.272;9.746;2023-06-22T13:14:54;33.00;48.00
16517;DHT22;8371;52.272;9.746;2023-06-22T13:17:21;32.90;48.20
16517;DHT22;8371;52.272;9.746;2023-06-22T13:19:46;32.70;48.50
16517;DHT22;8371;52.272;9.746;2023-06-22T13:22:31;32.60;48.70
16517;DHT22;8371;52.272;9.746;2023-06-22T13:24:58;32.50;48.90
16517;DHT22;8371;52.272;9.746;2023-06-22T13:27:24;32.40;49.10
16517;DHT22;8371;52.272;9.746;2023-06-22T13:29:50;32.40;49.20
16517;DHT22;8371;52.272;9.746;2023-06-22T13:32:16;32.40;49.30
16517;DHT22;8371;52.272;9.746;2023-06-22T13:34:43;32.40;49.50
16517;DHT22;8371;52.272;9.746;2023-06-22T13:37:09;32.30;49.70
16517;DHT22;8371;52.272;9.746;2023-06-22T13:39:34;32.30;50.20
16517;DHT22;8371;52.272;9.746;2023-06-22T13:42:00;32.40;50.50
16517;DHT22;8371;52.272;9.746;2023-06-22T13:44:26;32.40;50.50
16517;DHT22;8371;52.272;9.746;2023-06-22T13:46:53;32.50;50.20
16517;DHT22;8371;52.272;9.746;2023-06-22T13:49:19;32.50;50.00
16517;DHT22;8371;52.272;9.746;2023-06-22T13:51:45;32.40;49.90
16517;DHT22;8371;52.272;9.746;2023-06-22T13:54:10;32.40;50.00
16517;DHT22;8371;52.272;9.746;2023-06-22T13:56:36;32.40;50.00
16517;DHT22;8371;52.272;9.746;2023-06-22T13:59:02;32.30;50.00
16517;DHT22;8371;52.272;9.746;2023-06-22T14:01:27;32.30;50.00
16517;DHT22;8371;52.272;9.746;2023-06-22T14:03:53;32.20;50.30
16517;DHT22;8371;52.272;9.746;2023-06-22T14:06:19;32.00;50.60
16517;DHT22;8371;52.272;9.746;2023-06-22T14:08:44;31.90;50.40
16517;DHT22;8371;52.272;9.746;2023-06-22T14:11:10;31.60;50.30
16517;DHT22;8371;52.272;9.746;2023-06-22T14:13:36;31.40;50.50
16517;DHT22;8371;52.272;9.746;2023-06-22T14:16:01;31.10;50.80
16517;DHT22;8371;52.272;9.746;2023-06-22T14:18:27;30.90;51.20
16517;DHT22;8371;52.272;9.746;2023-06-22T14:20:53;30.60;51.30
16517;DHT22;8371;52.272;9.746;2023-06-22T14:23:19;30.40;51.80
16517;DHT22;8371;52.272;9.746;2023-06-22T14:25:44;30.20;52.30
16517;DHT22;8371;52.272;9.746;2023-06-22T14:28:10;30.00;52.70
16517;DHT22;8371;52.272;9.746;2023-06-22T14:30:36;29.90;53.00
16517;DHT22;8371;52.272;9.746;2023-06-22T14:33:01;29.80;53.50
16517;DHT22;8371;52.272;9.746;2023-06-22T14:35:27;29.70;53.90
16517;DHT22;8371;52.272;9.746;2023-06-22T14:37:53;29.60;54.10
16517;DHT22;8371;52.272;9.746;2023-06-22T14:40:18;29.60;54.60
16517;DHT22;8371;52.272;9.746;2023-06-22T14:42:44;29.70;54.80
16517;DHT22;8371;52.272;9.746;2023-06-22T14:45:10;29.70;54.90
16517;DHT22;8371;52.272;9.746;2023-06-22T14:47:36;29.70;54.50
16517;DHT22;8371;52.272;9.746;2023-06-22T14:50:01;29.70;54.80
16517;DHT22;8371;52.272;9.746;2023-06-22T14:52:27;29.60;54.60
16517;DHT22;8371;52.272;9.746;2023-06-22T14:54:53;29.60;54.40
16517;DHT22;8371;52.272;9.746;2023-06-22T14:57:19;29.50;55.20
16517;DHT22;8371;52.272;9.746;2023-06-22T14:59:47;29.30;54.20
16517;DHT22;8371;52.272;9.746;2023-06-22T15:02:14;29.30;54.30
16517;DHT22;8371;52.272;9.746;2023-06-22T15:04:40;29.10;54.30
16517;DHT22;8371;52.272;9.746;2023-06-22T15:07:06;28.90;54.50
16517;DHT22;8371;52.272;9.746;2023-06-22T15:09:32;28.70;54.60
16517;DHT22;8371;52.272;9.746;2023-06-22T15:11:58;28.60;54.80
16517;DHT22;8371;52.272;9.746;2023-06-22T15:14:27;28.30;55.20
16517;DHT22;8371;52.272;9.746;2023-06-22T15:16:52;28.10;55.50
16517;DHT22;8371;52.272;9.746;2023-06-22T15:19:18;27.90;55.70
16517;DHT22;8371;52.272;9.746;2023-06-22T15:21:44;27.60;56.10
16517;DHT22;8371;52.272;9.746;2023-06-22T15:24:11;27.20;56.60
16517;DHT22;8371;52.272;9.746;2023-06-22T15:26:36;26.80;57.50
16517;DHT22;8371;52.272;9.746;2023-06-22T15:29:02;26.40;58.00
16517;DHT22;8371;52.272;9.746;2023-06-22T15:31:28;26.00;59.40
16517;DHT22;8371;52.272;9.746;2023-06-22T15:33:54;25.60;60.40
16517;DHT22;8371;52.272;9.746;2023-06-22T15:36:29;25.30;61.70
16517;DHT22;8371;52.272;9.746;2023-06-22T15:38:54;25.00;63.40
16517;DHT22;8371;52.272;9.746;2023-06-22T15:41:20;24.70;62.70
16517;DHT22;8371;52.272;9.746;2023-06-22T15:43:46;24.40;63.00
16517;DHT22;8371;52.272;9.746;2023-06-22T15:46:12;24.20;63.40